sensor_id;sensor_type;location;lat;lon;timestamp;pressure;altitude;pressure_sealevel;temperature;humidity
55517;BME280;41724;51.176;-0.708;2023-04-02T00:02:29;101330.84;;;10.66;66.39
55517;BME280;41724;51.176;-0.708;2023-04-02T00:05:38;101338.67;;;10.42;66.32
55517;BME280;41724;51.176;-0.708;2023-04-02T00:08:19;101339.95;;;10.81;65.65
55517;BME280;41724;51.176;-0.708;2023-04-02T00:10:48;101347.82;;;10.80;64.81
55517;BME280;41724;51.176;-0.708;2023-04-02T00:13:23;101356.45;;;10.74;64.77
55517;BME280;41724;51.176;-0.708;2023-04-02T00:15:55;101355.62;;;10.33;65.20
55517;BME280;41724;51.176;-0.708;2023-04-02T00:18:23;101362.28;;;10.18;65.13
55517;BME280;41724;51.176;-0.708;2023-04-02T00:20:54;101363.41;;;9.59;66.40
55517;BME280;41724;51.176;-0.708;2023-04-02T00:23:22;101364.90;;;10.21;65.79
55517;BME280;41724;51.176;-0.708;2023-04-02T00:25:49;101365.75;;;10.72;64.59
55517;BME280;41724;51.176;-0.708;2023-04-02T00:28:18;101365.09;;;11.39;63.81
55517;BME280;41724;51.176;-0.708;2023-04-02T00:30:48;101366.46;;;11.13;63.01
55517;BME280;41724;51.176;-0.708;2023-04-02T00:33:18;101372.38;;;10.90;63.21
55517;BME280;41724;51.176;-0.708;2023-04-02T00:35:47;101372.03;;;11.15;62.91
55517;BME280;41724;51.176;-0.708;2023-04-02T00:38:19;101373.00;;;11.16;61.74
55517;BME280;41724;51.176;-0.708;2023-04-02T00:40:49;101375.50;;;11.42;62.33
55517;BME280;41724;51.176;-0.708;2023-04-02T00:43:17;101374.98;;;11.18;62.25
55517;BME280;41724;51.176;-0.708;2023-04-02T00:45:46;101380.25;;;11.31;61.85
55517;BME280;41724;51.176;-0.708;2023-04-02T00:48:24;101385.37;;;10.62;62.88
55517;BME280;41724;51.176;-0.708;2023-04-02T00:50:54;101390.35;;;10.74;62.99
55517;BME280;41724;51.176;-0.708;2023-04-02T00:53:24;101400.48;;;10.52;63.40
55517;BME280;41724;51.176;-0.708;2023-04-02T00:55:53;101400.62;;;10.70;62.56
55517;BME280;41724;51.176;-0.708;2023-04-02T00:58:26;101403.59;;;10.77;63.25
55517;BME280;41724;51.176;-0.708;2023-04-02T01:00:55;101404.76;;;10.59;63.30
55517;BME280;41724;51.176;-0.708;2023-04-02T01:03:29;101413.13;;;10.95;63.10
55517;BME280;41724;51.176;-0.708;2023-04-02T01:06:00;101416.24;;;10.91;63.33
55517;BME280;41724;51.176;-0.708;2023-04-02T01:08:36;101419.66;;;10.79;61.81
55517;BME280;41724;51.176;-0.708;2023-04-02T01:11:12;101423.81;;;10.68;62.33
55517;BME280;41724;51.176;-0.708;2023-04-02T01:13:52;101415.42;;;11.34;61.16
55517;BME280;41724;51.176;-0.708;2023-04-02T01:16:31;101420.59;;;11.04;61.85
55517;BME280;41724;51.176;-0.708;2023-04-02T01:19:17;101423.90;;;11.13;61.09
55517;BME280;41724;51.176;-0.708;2023-04-02T01:21:53;101425.89;;;10.88;61.14
55517;BME280;41724;51.176;-0.708;2023-04-02T01:24:29;101426.70;;;10.40;62.74
55517;BME280;41724;51.176;-0.708;2023-04-02T01:26:58;101428.55;;;10.34;62.81
55517;BME280;41724;51.176;-0.708;2023-04-02T01:29:29;101429.85;;;10.57;62.99
55517;BME280;41724;51.176;-0.708;2023-04-02T01:32:00;101431.12;;;9.71;63.62
55517;BME280;41724;51.176;-0.708;2023-04-02T01:34:30;101437.17;;;10.49;62.85
55517;BME280;41724;51.176;-0.708;2023-04-02T01:37:23;101439.41;;;10.19;63.49
55517;BME280;41724;51.176;-0.708;2023-04-02T01:40:02;101439.91;;;10.35;62.62
55517;BME280;41724;51.176;-0.708;2023-04-02T01:42:38;101438.97;;;10.59;63.17
55517;BME280;41724;51.176;-0.708;2023-04-02T01:45:10;101440.84;;;10.49;62.82
55517;BME280;41724;51.176;-0.708;2023-04-02T01:47:38;101443.52;;;10.41;62.49
55517;BME280;41724;51.176;-0.708;2023-04-02T01:50:21;101440.68;;;10.19;63.25
55517;BME280;41724;51.176;-0.708;2023-04-02T01:52:53;101440.72;;;10.52;63.07
55517;BME280;41724;51.176;-0.708;2023-04-02T01:55:31;101438.65;;;10.83;62.12
55517;BME280;41724;51.176;-0.708;2023-04-02T01:58:00;101440.88;;;10.11;61.62
55517;BME280;41724;51.176;-0.708;2023-04-02T02:00:28;101446.07;;;10.36;62.09
55517;BME280;41724;51.176;-0.708;2023-04-02T02:02:57;101446.74;;;9.85;63.80
55517;BME280;41724;51.176;-0.708;2023-04-02T02:05:25;101456.48;;;10.23;63.88
55517;BME280;41724;51.176;-0.708;2023-04-02T02:07:54;101458.79;;;10.41;63.21
55517;BME280;41724;51.176;-0.708;2023-04-02T02:10:24;101456.22;;;10.32;62.50
55517;BME280;41724;51.176;-0.708;2023-04-02T02:12:53;101456.83;;;10.55;62.43
55517;BME280;41724;51.176;-0.708;2023-04-02T02:15:22;101463.48;;;10.60;62.61
55517;BME280;41724;51.176;-0.708;2023-04-02T02:17:54;101469.85;;;10.67;62.64
55517;BME280;41724;51.176;-0.708;2023-04-02T02:20:25;101475.30;;;10.05;62.86
55517;BME280;41724;51.176;-0.708;2023-04-02T02:22:55;101477.22;;;10.20;62.44
55517;BME280;41724;51.176;-0.708;2023-04-02T02:25:25;101476.55;;;9.73;62.67
55517;BME280;41724;51.176;-0.708;2023-04-02T02:27:57;101478.27;;;10.79;62.57
55517;BME280;41724;51.176;-0.708;2023-04-02T02:30:27;101482.48;;;10.25;62.18
55517;BME280;41724;51.176;-0.708;2023-04-02T02:33:00;101485.70;;;10.38;63.33
55517;BME280;41724;51.176;-0.708;2023-04-02T02:35:31;101489.14;;;10.50;62.88
55517;BME280;41724;51.176;-0.708;2023-04-02T02:38:38;101492.87;;;10.36;62.32
55517;BME280;41724;51.176;-0.708;2023-04-02T02:41:13;101494.79;;;10.20;63.69
55517;BME280;41724;51.176;-0.708;2023-04-02T02:43:56;101498.10;;;10.51;62.85
55517;BME280;41724;51.176;-0.708;2023-04-02T02:46:26;101499.18;;;10.81;62.01
55517;BME280;41724;51.176;-0.708;2023-04-02T02:48:55;101504.58;;;10.45;62.28
55517;BME280;41724;51.176;-0.708;2023-04-02T02:51:28;101508.65;;;10.66;63.10
55517;BME280;41724;51.176;-0.708;2023-04-02T02:54:04;101510.00;;;10.10;63.39
55517;BME280;41724;51.176;-0.708;2023-04-02T02:56:34;101512.44;;;10.20;64.06
55517;BME280;41724;51.176;-0.708;2023-04-02T02:59:04;101518.77;;;10.55;63.42
55517;BME280;41724;51.176;-0.708;2023-04-02T03:01:34;101518.07;;;10.41;63.72
55517;BME280;41724;51.176;-0.708;2023-04-02T03:04:02;101518.06;;;10.19;63.22
55517;BME280;41724;51.176;-0.708;2023-04-02T03:06:29;101518.91;;;10.30;64.28
55517;BME280;41724;51.176;-0.708;2023-04-02T03:09:02;101522.08;;;10.24;65.09
55517;BME280;41724;51.176;-0.708;2023-04-02T03:11:35;101526.14;;;10.15;64.56
55517;BME280;41724;51.176;-0.708;2023-04-02T03:14:14;101540.40;;;9.80;65.27
55517;BME280;41724;51.176;-0.708;2023-04-02T03:16:45;101548.64;;;10.10;64.99
55517;BME280;41724;51.176;-0.708;2023-04-02T03:19:22;101548.14;;;10.41;65.06
55517;BME280;41724;51.176;-0.708;2023-04-02T03:21:54;101551.86;;;9.91;65.01
55517;BME280;41724;51.176;-0.708;2023-04-02T03:24:30;101543.95;;;9.82;65.62
55517;BME280;41724;51.176;-0.708;2023-04-02T03:27:05;101550.17;;;10.29;64.64
55517;BME280;41724;51.176;-0.708;2023-04-02T03:29:40;101554.93;;;10.77;63.91
55517;BME280;41724;51.176;-0.708;2023-04-02T03:32:15;101562.74;;;10.02;65.85
55517;BME280;41724;51.176;-0.708;2023-04-02T03:34:46;101568.36;;;9.56;66.89
55517;BME280;41724;51.176;-0.708;2023-04-02T03:37:18;101570.79;;;9.94;66.72
55517;BME280;41724;51.176;-0.708;2023-04-02T03:39:51;101571.27;;;9.60;66.93
55517;BME280;41724;51.176;-0.708;2023-04-02T03:42:21;101575.01;;;9.44;67.39
55517;BME280;41724;51.176;-0.708;2023-04-02T03:44:52;101580.47;;;9.87;66.53
55517;BME280;41724;51.176;-0.708;2023-04-02T03:47:28;101586.04;;;9.01;68.13
55517;BME280;41724;51.176;-0.708;2023-04-02T03:50:00;101589.34;;;9.53;66.59
55517;BME280;41724;51.176;-0.708;2023-04-02T03:52:29;101593.17;;;9.68;65.57
55517;BME280;41724;51.176;-0.708;2023-04-02T03:54:59;101600.07;;;9.34;65.45
55517;BME280;41724;51.176;-0.708;2023-04-02T03:57:31;101601.61;;;9.70;67.60
55517;BME280;41724;51.176;-0.708;2023-04-02T04:00:04;101603.31;;;9.57;66.48
55517;BME280;41724;51.176;-0.708;2023-04-02T04:02:40;101609.77;;;9.74;66.57
55517;BME280;41724;51.176;-0.708;2023-04-02T04:05:22;101607.23;;;10.31;65.43
55517;BME280;41724;51.176;-0.708;2023-04-02T04:07:52;101613.16;;;10.26;64.55
55517;BME280;41724;51.176;-0.708;2023-04-02T04:10:24;101617.13;;;10.20;65.02
55517;BME280;41724;51.176;-0.708;2023-04-02T04:12:55;101619.82;;;10.24;64.84
55517;BME280;41724;51.176;-0.708;2023-04-02T04:15:30;101627.52;;;9.93;65.07
55517;BME280;41724;51.176;-0.708;2023-04-02T04:18:02;101623.47;;;10.62;64.44
55517;BME280;41724;51.176;-0.708;2023-04-02T04:20:34;101630.23;;;10.80;64.09
55517;BME280;41724;51.176;-0.708;2023-04-02T04:23:15;101631.93;;;10.68;63.86
55517;BME280;41724;51.176;-0.708;2023-04-02T04:25:44;101637.86;;;10.65;63.35
55517;BME280;41724;51.176;-0.708;2023-04-02T04:28:20;101642.81;;;10.75;62.64
55517;BME280;41724;51.176;-0.708;2023-04-02T04:30:56;101647.94;;;10.84;63.26
55517;BME280;41724;51.176;-0.708;2023-04-02T04:33:26;101650.20;;;10.88;62.40
55517;BME280;41724;51.176;-0.708;2023-04-02T04:35:57;101648.57;;;10.83;63.15
55517;BME280;41724;51.176;-0.708;2023-04-02T04:38:30;101650.81;;;10.85;62.22
55517;BME280;41724;51.176;-0.708;2023-04-02T04:41:03;101654.41;;;10.88;62.28
55517;BME280;41724;51.176;-0.708;2023-04-02T04:43:39;101657.84;;;10.72;63.29
55517;BME280;41724;51.176;-0.708;2023-04-02T04:46:13;101664.40;;;10.30;63.78
55517;BME280;41724;51.176;-0.708;2023-04-02T04:48:49;101665.72;;;10.54;63.03
55517;BME280;41724;51.176;-0.708;2023-04-02T04:51:22;101671.05;;;10.85;63.10
55517;BME280;41724;51.176;-0.708;2023-04-02T04:53:53;101676.11;;;9.59;64.98
55517;BME280;41724;51.176;-0.708;2023-04-02T04:56:22;101680.19;;;9.78;64.73
55517;BME280;41724;51.176;-0.708;2023-04-02T04:58:54;101686.79;;;10.46;64.57
55517;BME280;41724;51.176;-0.708;2023-04-02T05:01:29;101698.39;;;8.67;67.15
55517;BME280;41724;51.176;-0.708;2023-04-02T05:04:03;101697.69;;;9.65;66.26
55517;BME280;41724;51.176;-0.708;2023-04-02T05:06:39;101702.63;;;9.12;65.66
55517;BME280;41724;51.176;-0.708;2023-04-02T05:09:16;101707.28;;;9.24;66.66
55517;BME280;41724;51.176;-0.708;2023-04-02T05:11:46;101712.23;;;9.56;65.50
55517;BME280;41724;51.176;-0.708;2023-04-02T05:14:22;101719.07;;;9.56;65.29
55517;BME280;41724;51.176;-0.708;2023-04-02T05:16:57;101728.00;;;9.22;65.66
55517;BME280;41724;51.176;-0.708;2023-04-02T05:19:33;101731.98;;;9.60;65.80
55517;BME280;41724;51.176;-0.708;2023-04-02T05:22:08;101735.35;;;9.44;65.24
55517;BME280;41724;51.176;-0.708;2023-04-02T05:24:47;101737.40;;;9.71;65.08
55517;BME280;41724;51.176;-0.708;2023-04-02T05:27:25;101737.02;;;9.61;65.04
55517;BME280;41724;51.176;-0.708;2023-04-02T05:29:59;101737.61;;;9.91;63.93
55517;BME280;41724;51.176;-0.708;2023-04-02T05:32:31;101740.90;;;9.86;63.60
55517;BME280;41724;51.176;-0.708;2023-04-02T05:35:02;101750.97;;;9.24;65.36
55517;BME280;41724;51.176;-0.708;2023-04-02T05:37:30;101753.16;;;9.76;64.89
55517;BME280;41724;51.176;-0.708;2023-04-02T05:39:59;101751.82;;;10.00;64.13
55517;BME280;41724;51.176;-0.708;2023-04-02T05:42:31;101754.40;;;9.89;63.15
55517;BME280;41724;51.176;-0.708;2023-04-02T05:45:12;101756.98;;;9.85;63.97
55517;BME280;41724;51.176;-0.708;2023-04-02T05:47:42;101759.81;;;9.99;63.36
55517;BME280;41724;51.176;-0.708;2023-04-02T05:50:18;101765.05;;;9.51;63.84
55517;BME280;41724;51.176;-0.708;2023-04-02T05:52:52;101769.37;;;9.58;64.62
55517;BME280;41724;51.176;-0.708;2023-04-02T05:55:36;101772.96;;;10.59;63.56
55517;BME280;41724;51.176;-0.708;2023-04-02T05:58:13;101776.36;;;10.44;62.28
55517;BME280;41724;51.176;-0.708;2023-04-02T06:00:53;101784.18;;;10.22;62.42
55517;BME280;41724;51.176;-0.708;2023-04-02T06:03:30;101789.40;;;10.11;62.59
55517;BME280;41724;51.176;-0.708;2023-04-02T06:06:04;101797.22;;;10.20;61.82
55517;BME280;41724;51.176;-0.708;2023-04-02T06:08:37;101802.31;;;9.78;62.46
55517;BME280;41724;51.176;-0.708;2023-04-02T06:11:09;101806.36;;;9.37;64.11
55517;BME280;41724;51.176;-0.708;2023-04-02T06:13:38;101814.89;;;8.99;65.03
55517;BME280;41724;51.176;-0.708;2023-04-02T06:16:05;101823.24;;;9.01;65.82
55517;BME280;41724;51.176;-0.708;2023-04-02T06:18:34;101827.20;;;8.77;65.32
55517;BME280;41724;51.176;-0.708;2023-04-02T06:21:03;101828.40;;;9.29;64.29
55517;BME280;41724;51.176;-0.708;2023-04-02T06:23:34;101833.81;;;9.74;63.75
55517;BME280;41724;51.176;-0.708;2023-04-02T06:26:15;101835.53;;;9.39;63.31
55517;BME280;41724;51.176;-0.708;2023-04-02T06:28:48;101837.73;;;8.81;64.70
55517;BME280;41724;51.176;-0.708;2023-04-02T06:31:23;101838.78;;;9.35;64.64
55517;BME280;41724;51.176;-0.708;2023-04-02T06:33:54;101842.08;;;9.22;64.07
55517;BME280;41724;51.176;-0.708;2023-04-02T06:36:22;101849.26;;;9.02;64.15
55517;BME280;41724;51.176;-0.708;2023-04-02T06:38:50;101847.66;;;8.86;63.83
55517;BME280;41724;51.176;-0.708;2023-04-02T06:41:20;101849.11;;;9.46;63.29
55517;BME280;41724;51.176;-0.708;2023-04-02T06:43:50;101858.46;;;9.09;64.08
55517;BME280;41724;51.176;-0.708;2023-04-02T06:46:25;101859.70;;;9.52;63.50
55517;BME280;41724;51.176;-0.708;2023-04-02T06:49:02;101869.34;;;9.60;62.44
55517;BME280;41724;51.176;-0.708;2023-04-02T06:51:33;101874.63;;;9.95;62.95
55517;BME280;41724;51.176;-0.708;2023-04-02T06:54:02;101876.71;;;9.59;61.81
55517;BME280;41724;51.176;-0.708;2023-04-02T06:56:41;101874.72;;;9.57;61.43
55517;BME280;41724;51.176;-0.708;2023-04-02T06:59:09;101883.79;;;9.77;60.62
55517;BME280;41724;51.176;-0.708;2023-04-02T07:01:42;101888.12;;;9.10;62.29
55517;BME280;41724;51.176;-0.708;2023-04-02T07:04:11;101891.70;;;9.36;62.20
55517;BME280;41724;51.176;-0.708;2023-04-02T07:06:38;101890.54;;;8.84;62.49
55517;BME280;41724;51.176;-0.708;2023-04-02T07:09:05;101899.06;;;8.92;63.09
55517;BME280;41724;51.176;-0.708;2023-04-02T07:11:32;101901.52;;;9.32;62.12
55517;BME280;41724;51.176;-0.708;2023-04-02T07:14:00;101912.77;;;9.33;61.42
55517;BME280;41724;51.176;-0.708;2023-04-02T07:16:29;101925.50;;;9.48;61.45
55517;BME280;41724;51.176;-0.708;2023-04-02T07:18:57;101930.83;;;8.66;62.74
55517;BME280;41724;51.176;-0.708;2023-04-02T07:21:24;101930.76;;;8.84;61.93
55517;BME280;41724;51.176;-0.708;2023-04-02T07:23:52;101937.83;;;8.71;62.47
55517;BME280;41724;51.176;-0.708;2023-04-02T07:26:20;101942.62;;;9.55;61.55
55517;BME280;41724;51.176;-0.708;2023-04-02T07:28:48;101945.76;;;9.71;60.62
55517;BME280;41724;51.176;-0.708;2023-04-02T07:31:16;101947.48;;;9.31;60.10
55517;BME280;41724;51.176;-0.708;2023-04-02T07:33:44;101949.46;;;9.28;60.03
55517;BME280;41724;51.176;-0.708;2023-04-02T07:36:13;101952.01;;;9.83;60.38
55517;BME280;41724;51.176;-0.708;2023-04-02T07:38:41;101958.08;;;9.82;59.65
55517;BME280;41724;51.176;-0.708;2023-04-02T07:41:10;101955.66;;;9.84;59.10
55517;BME280;41724;51.176;-0.708;2023-04-02T07:43:37;101959.58;;;9.74;60.59
55517;BME280;41724;51.176;-0.708;2023-04-02T07:46:06;101959.35;;;9.59;60.70
55517;BME280;41724;51.176;-0.708;2023-04-02T07:48:33;101958.51;;;9.70;61.31
55517;BME280;41724;51.176;-0.708;2023-04-02T07:51:01;101962.99;;;9.88;61.00
55517;BME280;41724;51.176;-0.708;2023-04-02T07:53:30;101966.16;;;9.73;61.14
55517;BME280;41724;51.176;-0.708;2023-04-02T07:55:59;101972.56;;;9.73;61.32
55517;BME280;41724;51.176;-0.708;2023-04-02T07:58:26;101973.47;;;9.37;60.81
55517;BME280;41724;51.176;-0.708;2023-04-02T08:00:55;101976.66;;;9.60;61.72
55517;BME280;41724;51.176;-0.708;2023-04-02T08:03:24;101980.93;;;9.80;60.89
55517;BME280;41724;51.176;-0.708;2023-04-02T08:05:53;101988.58;;;9.95;60.28
55517;BME280;41724;51.176;-0.708;2023-04-02T08:08:22;101986.67;;;9.76;59.20
55517;BME280;41724;51.176;-0.708;2023-04-02T08:10:50;101990.57;;;9.54;59.74
55517;BME280;41724;51.176;-0.708;2023-04-02T08:13:18;101996.88;;;9.33;59.92
55517;BME280;41724;51.176;-0.708;2023-04-02T08:15:45;102002.72;;;9.27;59.43
55517;BME280;41724;51.176;-0.708;2023-04-02T08:18:12;102006.94;;;9.44;58.77
55517;BME280;41724;51.176;-0.708;2023-04-02T08:20:39;102014.52;;;9.97;58.41
55517;BME280;41724;51.176;-0.708;2023-04-02T08:23:12;102016.99;;;9.18;58.33
55517;BME280;41724;51.176;-0.708;2023-04-02T08:25:39;102020.33;;;9.99;58.12
55517;BME280;41724;51.176;-0.708;2023-04-02T08:28:06;102025.85;;;10.04;57.07
55517;BME280;41724;51.176;-0.708;2023-04-02T08:30:34;102024.93;;;9.90;56.98
55517;BME280;41724;51.176;-0.708;2023-04-02T08:33:01;102028.54;;;9.95;56.21
55517;BME280;41724;51.176;-0.708;2023-04-02T08:35:29;102027.38;;;9.76;57.47
55517;BME280;41724;51.176;-0.708;2023-04-02T08:37:57;102033.08;;;10.09;57.72
55517;BME280;41724;51.176;-0.708;2023-04-02T08:40:27;102038.91;;;9.96;56.64
55517;BME280;41724;51.176;-0.708;2023-04-02T08:43:08;102037.23;;;9.67;57.78
55517;BME280;41724;51.176;-0.708;2023-04-02T08:45:53;102040.80;;;9.74;56.91
55517;BME280;41724;51.176;-0.708;2023-04-02T08:48:22;102046.18;;;10.38;56.82
55517;BME280;41724;51.176;-0.708;2023-04-02T08:50:50;102044.74;;;9.97;56.77
55517;BME280;41724;51.176;-0.708;2023-04-02T08:53:20;102052.57;;;9.90;56.38
55517;BME280;41724;51.176;-0.708;2023-04-02T08:55:58;102057.24;;;9.34;55.85
55517;BME280;41724;51.176;-0.708;2023-04-02T08:58:37;102058.52;;;9.56;55.58
55517;BME280;41724;51.176;-0.708;2023-04-02T09:01:06;102063.26;;;9.66;55.39
55517;BME280;41724;51.176;-0.708;2023-04-02T09:03:40;102063.30;;;9.94;55.53
55517;BME280;41724;51.176;-0.708;2023-04-02T09:06:10;102067.59;;;10.54;55.02
55517;BME280;41724;51.176;-0.708;2023-04-02T09:08:42;102067.79;;;10.70;54.41
55517;BME280;41724;51.176;-0.708;2023-04-02T09:11:18;102067.24;;;11.04;53.85
55517;BME280;41724;51.176;-0.708;2023-04-02T09:13:54;102064.40;;;10.91;53.71
55517;BME280;41724;51.176;-0.708;2023-04-02T09:16:36;102070.36;;;10.54;54.21
55517;BME280;41724;51.176;-0.708;2023-04-02T09:19:15;102077.16;;;10.81;54.30
55517;BME280;41724;51.176;-0.708;2023-04-02T09:21:47;102090.75;;;10.60;53.71
55517;BME280;41724;51.176;-0.708;2023-04-02T09:24:18;102093.74;;;10.53;54.14
55517;BME280;41724;51.176;-0.708;2023-04-02T09:26:45;102098.77;;;11.05;52.96
55517;BME280;41724;51.176;-0.708;2023-04-02T09:29:27;102096.05;;;10.51;54.37
55517;BME280;41724;51.176;-0.708;2023-04-02T09:32:03;102098.79;;;10.62;54.16
55517;BME280;41724;51.176;-0.708;2023-04-02T09:34:35;102103.16;;;10.12;54.36
55517;BME280;41724;51.176;-0.708;2023-04-02T09:37:11;102113.79;;;10.46;54.85
55517;BME280;41724;51.176;-0.708;2023-04-02T09:39:40;102119.00;;;10.88;55.06
55517;BME280;41724;51.176;-0.708;2023-04-02T09:42:25;102119.11;;;10.34;53.77
55517;BME280;41724;51.176;-0.708;2023-04-02T09:45:12;102121.89;;;10.35;54.87
55517;BME280;41724;51.176;-0.708;2023-04-02T09:47:39;102128.75;;;10.91;55.12
55517;BME280;41724;51.176;-0.708;2023-04-02T09:50:24;102127.14;;;10.54;54.46
55517;BME280;41724;51.176;-0.708;2023-04-02T09:52:53;102124.54;;;10.57;54.49
55517;BME280;41724;51.176;-0.708;2023-04-02T09:55:23;102126.45;;;10.75;53.41
55517;BME280;41724;51.176;-0.708;2023-04-02T09:57:50;102128.53;;;10.53;54.15
55517;BME280;41724;51.176;-0.708;2023-04-02T10:00:33;102130.60;;;10.49;53.40
55517;BME280;41724;51.176;-0.708;2023-04-02T10:03:03;102140.52;;;10.26;54.06
55517;BME280;41724;51.176;-0.708;2023-04-02T10:05:32;102147.05;;;10.39;54.40
55517;BME280;41724;51.176;-0.708;2023-04-02T10:08:19;102149.10;;;11.16;53.97
55517;BME280;41724;51.176;-0.708;2023-04-02T10:10:48;102149.57;;;11.15;53.54
55517;BME280;41724;51.176;-0.708;2023-04-02T10:13:22;102149.34;;;10.93;52.95
55517;BME280;41724;51.176;-0.708;2023-04-02T10:15:56;102147.20;;;11.08;51.95
55517;BME280;41724;51.176;-0.708;2023-04-02T10:18:37;102150.80;;;11.51;51.90
55517;BME280;41724;51.176;-0.708;2023-04-02T10:21:10;102152.82;;;11.14;51.34
55517;BME280;41724;51.176;-0.708;2023-04-02T10:23:39;102156.02;;;10.94;52.81
55517;BME280;41724;51.176;-0.708;2023-04-02T10:26:34;102157.85;;;10.98;53.43
55517;BME280;41724;51.176;-0.708;2023-04-02T10:29:18;102162.04;;;11.00;54.12
55517;BME280;41724;51.176;-0.708;2023-04-02T10:31:57;102167.95;;;10.54;54.10
55517;BME280;41724;51.176;-0.708;2023-04-02T10:34:32;102175.73;;;10.43;54.44
55517;BME280;41724;51.176;-0.708;2023-04-02T10:37:18;102175.56;;;11.27;54.29
55517;BME280;41724;51.176;-0.708;2023-04-02T10:39:55;102176.80;;;11.06;53.65
55517;BME280;41724;51.176;-0.708;2023-04-02T10:42:30;102179.22;;;11.33;52.29
55517;BME280;41724;51.176;-0.708;2023-04-02T10:45:15;102180.53;;;11.41;53.61
55517;BME280;41724;51.176;-0.708;2023-04-02T10:47:52;102171.92;;;11.13;54.17
55517;BME280;41724;51.176;-0.708;2023-04-02T10:50:30;102170.43;;;10.90;53.38
55517;BME280;41724;51.176;-0.708;2023-04-02T10:53:08;102173.11;;;11.18;54.72
55517;BME280;41724;51.176;-0.708;2023-04-02T10:55:42;102180.76;;;11.71;52.76
55517;BME280;41724;51.176;-0.708;2023-04-02T10:58:19;102187.60;;;11.68;52.82
55517;BME280;41724;51.176;-0.708;2023-04-02T11:00:52;102200.76;;;11.46;51.47
55517;BME280;41724;51.176;-0.708;2023-04-02T11:03:29;102205.07;;;10.72;53.69
55517;BME280;41724;51.176;-0.708;2023-04-02T11:05:58;102209.09;;;10.77;54.24
55517;BME280;41724;51.176;-0.708;2023-04-02T11:08:30;102203.41;;;10.65;52.59
55517;BME280;41724;51.176;-0.708;2023-04-02T11:11:09;102203.27;;;11.20;51.77
55517;BME280;41724;51.176;-0.708;2023-04-02T11:13:46;102202.38;;;11.52;51.15
55517;BME280;41724;51.176;-0.708;2023-04-02T11:16:16;102204.55;;;11.03;51.51
55517;BME280;41724;51.176;-0.708;2023-04-02T11:19:08;102208.84;;;10.88;52.07
55517;BME280;41724;51.176;-0.708;2023-04-02T11:21:38;102209.53;;;11.35;52.23
55517;BME280;41724;51.176;-0.708;2023-04-02T11:24:25;102206.51;;;11.41;51.16
55517;BME280;41724;51.176;-0.708;2023-04-02T11:27:04;102204.37;;;11.66;50.96
55517;BME280;41724;51.176;-0.708;2023-04-02T11:29:32;102207.28;;;12.21;50.94
55517;BME280;41724;51.176;-0.708;2023-04-02T11:32:27;102212.71;;;12.23;49.78
55517;BME280;41724;51.176;-0.708;2023-04-02T11:35:42;102220.56;;;12.45;47.86
55517;BME280;41724;51.176;-0.708;2023-04-02T11:39:44;102228.70;;;11.97;49.55
55517;BME280;41724;51.176;-0.708;2023-04-02T11:42:23;102225.87;;;11.99;48.40
55517;BME280;41724;51.176;-0.708;2023-04-02T11:44:50;102235.50;;;11.96;49.58
55517;BME280;41724;51.176;-0.708;2023-04-02T11:47:20;102235.23;;;12.36;49.44
55517;BME280;41724;51.176;-0.708;2023-04-02T11:49:59;102234.93;;;11.92;48.26
55517;BME280;41724;51.176;-0.708;2023-04-02T11:52:33;102235.13;;;12.13;47.94
55517;BME280;41724;51.176;-0.708;2023-04-02T11:55:17;102236.72;;;11.42;50.63
55517;BME280;41724;51.176;-0.708;2023-04-02T11:58:33;102243.34;;;11.96;50.75
55517;BME280;41724;51.176;-0.708;2023-04-02T12:01:28;102240.99;;;12.47;48.32
55517;BME280;41724;51.176;-0.708;2023-04-02T12:04:15;102246.60;;;11.90;49.14
55517;BME280;41724;51.176;-0.708;2023-04-02T12:07:02;102252.08;;;12.53;48.92
55517;BME280;41724;51.176;-0.708;2023-04-02T12:09:42;102256.00;;;12.62;46.89
55517;BME280;41724;51.176;-0.708;2023-04-02T12:12:25;102260.98;;;12.51;48.44
55517;BME280;41724;51.176;-0.708;2023-04-02T12:14:54;102262.32;;;12.26;47.80
55517;BME280;41724;51.176;-0.708;2023-04-02T12:17:28;102266.96;;;12.00;49.02
55517;BME280;41724;51.176;-0.708;2023-04-02T12:19:57;102272.15;;;11.78;49.75
55517;BME280;41724;51.176;-0.708;2023-04-02T12:22:27;102268.19;;;12.41;48.28
55517;BME280;41724;51.176;-0.708;2023-04-02T12:24:58;102277.85;;;12.28;47.84
55517;BME280;41724;51.176;-0.708;2023-04-02T12:27:27;102282.41;;;12.48;46.84
55517;BME280;41724;51.176;-0.708;2023-04-02T12:30:09;102278.67;;;12.58;48.48
55517;BME280;41724;51.176;-0.708;2023-04-02T12:32:37;102285.70;;;12.29;48.01
55517;BME280;41724;51.176;-0.708;2023-04-02T12:35:05;102291.25;;;12.45;49.01
55517;BME280;41724;51.176;-0.708;2023-04-02T12:37:32;102288.82;;;12.15;47.94
55517;BME280;41724;51.176;-0.708;2023-04-02T12:40:02;102292.10;;;12.33;48.81
55517;BME280;41724;51.176;-0.708;2023-04-02T12:42:32;102293.72;;;12.41;47.60
55517;BME280;41724;51.176;-0.708;2023-04-02T12:45:00;102295.84;;;12.01;48.65
55517;BME280;41724;51.176;-0.708;2023-04-02T12:47:28;102302.28;;;12.13;47.86
55517;BME280;41724;51.176;-0.708;2023-04-02T12:49:56;102298.47;;;12.18;46.92
55517;BME280;41724;51.176;-0.708;2023-04-02T12:52:26;102298.54;;;12.20;46.75
55517;BME280;41724;51.176;-0.708;2023-04-02T12:54:56;102297.73;;;12.74;49.08
55517;BME280;41724;51.176;-0.708;2023-04-02T12:57:34;102302.72;;;13.00;49.07
55517;BME280;41724;51.176;-0.708;2023-04-02T13:00:32;102294.81;;;13.34;46.19
55517;BME280;41724;51.176;-0.708;2023-04-02T13:03:12;102292.53;;;13.00;48.16
55517;BME280;41724;51.176;-0.708;2023-04-02T13:05:46;102298.36;;;12.57;48.16
55517;BME280;41724;51.176;-0.708;2023-04-02T13:08:17;102298.74;;;12.59;47.63
55517;BME280;41724;51.176;-0.708;2023-04-02T13:10:45;102294.18;;;13.32;46.75
55517;BME280;41724;51.176;-0.708;2023-04-02T13:13:24;102289.98;;;13.64;45.18
55517;BME280;41724;51.176;-0.708;2023-04-02T13:16:00;102292.15;;;13.43;45.22
55517;BME280;41724;51.176;-0.708;2023-04-02T13:18:29;102290.85;;;13.40;44.87